Bradley International Airport
KBDL : now visible

Airfield :











YOU CAN JOIN US ON...

 
LOGIN :

Register | Disclaimer

   EN    FR    IT 

 









Legend :    VFR   Marginal VFR   IFR   Intensive IFR   Very Intensive IFR
Visi :
Ceiling :
>= 8 km
>= 3000ft
5 to 8 km
1000 to 3000 ft
1500m to 5 km
500 to 1000 ft
800 to 1500m
200 to 500 ft
< 800m
< 200 ft
Symbols :   Thunderstorms  Fog  Heavy snow  Heavy precipitations  Wind > 20 kt






- Airport Elevation : 173 ft
- IATA code : BDL


KBDL - Bradley International

CURRENT METAR :
  • 120251Z 27007KT 10SM FEW050 M02/M07 A3032 RMK AO2 SLP270 T10221072 53016

EXPIRED METARs :
  • 120151Z 25008KT 10SM FEW050 M03/M06 A3030 RMK AO2 SLP263 T10281056
  • 120051Z 24008KT 10SM CLR M03/M05 A3028 RMK AO2 SLP257 T10281050

TAF KBDL
Valid from the 12 at 00:00 until the 13 at 06:00 UTC


112320Z 1200/1306 23007KT P6SM FEW150
FM120200 27007KT P6SM FEW250
FM120500 30008KT P6SM SKC
FM121500 32003KT P6SM FEW250
FM122100 00000KT P6SM FEW200



MET'MAP, your aeronautical weather chart ! - Copyright ORBIFLY December 2007 - Disclaimer

ORBIFLY MET'MAP TEAM :

Programming & Development : Alexandra Zaïnal
Concept & original design : Baudouin d'Aumeries
Assistance for programming : Marc-Olivier Méhu
Technical & hardware support : Manuel Goepfert

Contact : metmap@orbifly.com




SOURCES & CREDITS :

   NOAA       Earth
Advisory